Time;durP1;ratioP1;P1;durP2;ratioP2;P2;SDS_P1;SDS_P2;PMS_P1;PMS_P2;Temp;Humidity;BMP_temperature;BMP_pressure;BME280_temperature;BME280_humidity;BME280_pressure;Samples;Min_cycle;Max_cycle;Signal;HPM_P1;HPM_P2
2022/10/05 00:01:47;;;;;;;2.33;1.70;;;11.00;99.90;;;;;;4936421;29;20048;-83
2022/10/05 00:04:21;;;;;;;2.00;1.75;;;11.00;99.90;;;;;;4952605;29;20457;-85
2022/10/05 00:07:07;;;;;;;7.53;2.17;;;11.00;99.90;;;;;;4951509;29;20050;-84
2022/10/05 00:09:34;;;;;;;3.40;2.40;;;11.00;99.90;;;;;;4945250;29;20059;-84
2022/10/05 00:12:21;;;;;;;6.57;2.30;;;11.00;99.90;;;;;;4943610;29;20055;-84
2022/10/05 00:14:50;;;;;;;8.10;2.13;;;11.00;99.90;;;;;;4953915;29;20053;-84
2022/10/05 00:17:23;;;;;;;2.97;2.13;;;11.00;99.90;;;;;;4949029;29;20056;-84
2022/10/05 00:19:51;;;;;;;5.43;2.53;;;11.00;99.90;;;;;;4945929;29;20516;-83
2022/10/05 00:22:32;;;;;;;5.53;1.90;;;11.00;99.90;;;;;;4942102;29;20414;-84
2022/10/05 00:25:00;;;;;;;3.47;2.00;;;10.90;99.90;;;;;;4950046;29;20047;-84
2022/10/05 00:27:35;;;;;;;3.88;1.92;;;10.90;99.90;;;;;;4945433;29;20047;-85
2022/10/05 00:30:10;;;;;;;5.57;2.20;;;10.90;99.90;;;;;;4945149;29;20051;-84
2022/10/05 00:32:37;;;;;;;4.57;2.15;;;10.90;99.90;;;;;;4941664;29;20139;-85
2022/10/05 00:35:05;;;;;;;3.22;2.00;;;11.00;99.90;;;;;;4951707;29;20066;-84
2022/10/05 00:37:31;;;;;;;3.22;2.10;;;10.90;99.90;;;;;;4957909;29;20067;-82
2022/10/05 00:39:58;;;;;;;4.97;2.20;;;10.90;99.90;;;;;;4949867;29;20510;-83
2022/10/05 00:42:59;;;;;;;3.58;2.85;;;10.90;99.90;;;;;;4944148;29;20055;-84
2022/10/05 00:45:34;;;;;;;4.55;2.40;;;10.90;99.90;;;;;;4950447;29;20047;-83
2022/10/05 00:48:16;;;;;;;4.20;2.55;;;10.90;99.90;;;;;;4951183;29;20043;-83
2022/10/05 00:50:48;;;;;;;8.15;2.63;;;10.90;99.90;;;;;;4948120;29;20062;-83
2022/10/05 00:53:41;;;;;;;8.55;2.05;;;10.80;99.90;;;;;;4953752;29;20061;-84
2022/10/05 00:56:28;;;;;;;4.93;2.30;;;10.80;99.90;;;;;;4954467;29;20520;-84
2022/10/05 00:59:23;;;;;;;3.10;2.38;;;10.80;99.90;;;;;;4949511;29;20437;-82
2022/10/05 01:02:01;;;;;;;8.55;2.47;;;10.70;99.90;;;;;;4948439;29;20095;-84
2022/10/05 01:05:04;;;;;;;8.38;3.00;;;10.80;99.90;;;;;;4944446;29;20051;-84
2022/10/05 01:08:00;;;;;;;2.83;2.13;;;10.70;99.90;;;;;;4941103;29;20079;-84
2022/10/05 01:10:37;;;;;;;3.88;2.50;;;10.60;99.90;;;;;;4946674;29;20048;-84
2022/10/05 01:13:22;;;;;;;3.70;2.30;;;10.60;99.90;;;;;;4955299;29;20051;-85
2022/10/05 01:15:57;;;;;;;4.03;2.30;;;10.60;99.90;;;;;;4951252;29;20085;-84
2022/10/05 01:18:39;;;;;;;3.00;2.50;;;10.60;99.90;;;;;;4954588;29;20063;-84
2022/10/05 01:21:21;;;;;;;4.85;2.80;;;10.60;99.90;;;;;;4949398;29;20051;-84
2022/10/05 01:24:18;;;;;;;4.75;2.85;;;10.60;99.90;;;;;;4944067;29;20504;-85
2022/10/05 01:27:03;;;;;;;4.80;2.25;;;10.60;99.90;;;;;;4945823;29;20087;-83
2022/10/05 01:30:02;;;;;;;2.80;2.50;;;10.50;99.90;;;;;;4950419;29;20052;-83
2022/10/05 01:32:48;;;;;;;5.85;2.78;;;10.50;99.90;;;;;;4921312;29;20138;-84
2022/10/05 01:35:42;;;;;;;4.10;3.10;;;10.50;99.90;;;;;;4951127;29;20506;-84
2022/10/05 01:38:43;;;;;;;9.00;2.90;;;10.50;99.90;;;;;;4950252;29;20055;-84
2022/10/05 01:41:27;;;;;;;6.82;2.80;;;10.50;99.90;;;;;;4946718;29;20048;-84
2022/10/05 01:44:36;;;;;;;5.68;2.60;;;10.50;99.90;;;;;;4951059;29;20074;-84
2022/10/05 01:47:16;;;;;;;5.20;3.10;;;10.50;99.90;;;;;;4936875;29;20048;-85
2022/10/05 01:49:43;;;;;;;3.88;3.17;;;10.50;99.90;;;;;;4951378;29;20047;-84
2022/10/05 01:52:12;;;;;;;8.05;3.47;;;10.50;99.90;;;;;;4948441;29;20048;-85
2022/10/05 01:55:00;;;;;;;6.90;4.43;;;10.50;99.90;;;;;;4945811;29;20456;-83
2022/10/05 01:57:58;;;;;;;3.85;3.35;;;10.50;99.90;;;;;;4941420;29;20503;-84
2022/10/05 02:00:27;;;;;;;6.63;3.75;;;10.60;99.90;;;;;;4941490;29;20087;-84
2022/10/05 02:03:29;;;;;;;5.15;4.25;;;10.60;99.90;;;;;;4949784;29;20062;-86
2022/10/05 02:06:08;;;;;;;6.50;5.05;;;10.60;99.90;;;;;;4939001;29;20093;-84
2022/10/05 02:08:35;;;;;;;8.63;5.45;;;10.60;99.90;;;;;;4945569;29;20071;-83
2022/10/05 02:11:07;;;;;;;6.07;4.75;;;10.70;99.90;;;;;;4962480;29;20051;-85
2022/10/05 02:13:47;;;;;;;4.97;4.28;;;10.70;99.90;;;;;;4973142;28;20055;-85
2022/10/05 02:16:23;;;;;;;5.65;4.60;;;10.70;99.90;;;;;;4963060;29;20054;-85
2022/10/05 02:18:58;;;;;;;7.55;4.72;;;10.70;99.90;;;;;;4956518;29;20074;-84
2022/10/05 02:21:26;;;;;;;7.68;5.15;;;10.70;99.90;;;;;;4949406;29;20111;-84
2022/10/05 02:23:59;;;;;;;7.18;4.85;;;10.80;99.90;;;;;;4950221;29;20051;-84
2022/10/05 02:26:26;;;;;;;8.23;5.32;;;10.80;99.90;;;;;;4955923;28;20509;-83
2022/10/05 02:28:57;;;;;;;6.80;4.70;;;10.80;99.90;;;;;;4946191;29;20054;-84
2022/10/05 02:31:39;;;;;;;10.40;5.50;;;10.80;99.90;;;;;;4954981;29;20429;-84
2022/10/05 02:34:19;;;;;;;8.55;5.32;;;10.80;99.90;;;;;;4951702;29;20496;-85
2022/10/05 02:36:49;;;;;;;6.80;5.13;;;10.80;99.90;;;;;;4945044;29;20061;-84
2022/10/05 02:39:46;;;;;;;12.70;6.65;;;10.80;99.90;;;;;;4939682;29;20062;-85
2022/10/05 02:42:27;;;;;;;11.32;6.07;;;10.90;99.90;;;;;;4940540;29;20481;-85
2022/10/05 02:45:25;;;;;;;8.63;4.90;;;10.90;99.90;;;;;;4940328;29;20063;-84
2022/10/05 02:48:21;;;;;;;7.63;5.38;;;10.90;99.90;;;;;;4942866;29;20051;-84
2022/10/05 02:50:57;;;;;;;9.05;6.50;;;10.90;99.90;;;;;;4957801;28;20051;-84
2022/10/05 02:53:47;;;;;;;8.98;5.85;;;10.90;99.90;;;;;;4945335;29;20077;-84
2022/10/05 02:56:39;;;;;;;8.52;6.60;;;10.90;99.90;;;;;;4947725;29;20535;-83
2022/10/05 02:59:30;;;;;;;7.38;5.63;;;10.90;99.90;;;;;;4954482;29;20454;-84
2022/10/05 03:02:16;;;;;;;12.77;6.38;;;11.00;99.90;;;;;;4950630;29;20524;-84
2022/10/05 03:05:07;;;;;;;11.70;6.50;;;11.00;99.90;;;;;;4947392;29;20054;-85
2022/10/05 03:07:47;;;;;;;7.53;5.50;;;10.90;99.90;;;;;;4964906;29;20051;-85
2022/10/05 03:10:42;;;;;;;9.82;5.43;;;11.00;99.90;;;;;;4965706;29;20047;-85
2022/10/05 03:13:25;;;;;;;11.68;5.10;;;11.00;99.90;;;;;;4963859;28;20086;-84
2022/10/05 03:16:17;;;;;;;7.78;5.38;;;11.00;99.90;;;;;;4960920;29;20111;-86
2022/10/05 03:19:02;;;;;;;6.78;4.88;;;11.00;99.90;;;;;;4947486;29;20051;-83
2022/10/05 03:21:41;;;;;;;5.88;5.28;;;11.10;99.90;;;;;;4944130;29;20116;-85
2022/10/05 03:24:35;;;;;;;5.35;4.85;;;11.10;99.90;;;;;;4959176;29;20061;-83
2022/10/05 03:27:22;;;;;;;4.72;4.22;;;11.10;99.90;;;;;;4949959;29;20128;-85
2022/10/05 03:30:04;;;;;;;5.75;4.15;;;11.20;99.90;;;;;;4947456;29;20047;-86
2022/10/05 03:32:39;;;;;;;6.47;4.22;;;11.20;99.90;;;;;;4947012;29;20079;-85
2022/10/05 03:35:26;;;;;;;5.45;4.20;;;11.20;99.90;;;;;;4950169;29;20201;-85
2022/10/05 03:38:17;;;;;;;6.35;4.45;;;11.30;99.90;;;;;;4960228;28;20057;-84
2022/10/05 03:40:52;;;;;;;4.75;4.07;;;11.30;99.90;;;;;;4976556;28;20051;-85
2022/10/05 03:43:51;;;;;;;7.60;4.65;;;11.30;99.90;;;;;;4968703;28;20043;-84
2022/10/05 03:46:31;;;;;;;7.97;4.55;;;11.20;99.90;;;;;;4954875;29;20137;-85
2022/10/05 03:49:01;;;;;;;6.53;4.90;;;11.30;99.90;;;;;;4961575;28;20039;-83
2022/10/05 03:51:31;;;;;;;;;;;11.30;99.90;;;;;;4960961;28;20115;-85
2022/10/05 03:54:08;;;;;;;8.87;5.97;;;11.20;99.90;;;;;;4959043;28;19965;-84
2022/10/05 03:56:44;;;;;;;11.85;6.25;;;11.20;99.90;;;;;;4953976;29;20059;-82
2022/10/05 03:59:21;;;;;;;7.38;5.80;;;11.20;99.90;;;;;;4966112;29;20077;-82
2022/10/05 04:02:19;;;;;;;8.68;5.68;;;11.20;99.90;;;;;;4956642;29;20054;-85
2022/10/05 04:04:55;;;;;;;6.75;5.53;;;11.20;99.90;;;;;;4953688;29;20118;-84
2022/10/05 04:07:55;;;;;;;7.32;5.70;;;11.10;99.90;;;;;;4961505;29;20138;-84
2022/10/05 04:10:27;;;;;;;6.47;5.75;;;11.10;99.90;;;;;;4956968;28;20047;-84
2022/10/05 04:13:03;;;;;;;9.98;5.30;;;11.10;99.90;;;;;;4966212;29;20047;-83
2022/10/05 04:15:46;;;;;;;7.00;5.60;;;11.10;99.90;;;;;;4963675;29;20048;-84
2022/10/05 04:18:25;;;;;;;8.15;6.30;;;11.00;99.90;;;;;;4959470;29;20047;-84
2022/10/05 04:20:59;;;;;;;9.82;5.57;;;11.00;99.90;;;;;;4959810;29;20051;-84
2022/10/05 04:23:55;;;;;;;7.03;5.68;;;11.00;99.90;;;;;;4953899;28;20058;-83
2022/10/05 04:26:28;;;;;;;8.57;5.63;;;11.00;99.90;;;;;;4963904;29;20054;-84
2022/10/05 04:29:20;;;;;;;14.50;10.05;;;11.00;99.90;;;;;;4962998;28;20048;-84
2022/10/05 04:32:24;;;;;;;10.40;5.10;;;11.00;99.90;;;;;;4958457;29;20063;-84
2022/10/05 04:35:02;;;;;;;9.85;4.47;;;11.00;99.90;;;;;;4975045;28;20038;-87
2022/10/05 04:37:52;;;;;;;5.88;3.25;;;10.90;99.90;;;;;;4966285;28;20035;-89
2022/10/05 04:40:50;;;;;;;6.13;3.63;;;11.00;99.90;;;;;;4977089;28;20051;-88
2022/10/05 04:43:58;;;;;;;8.70;4.30;;;11.00;99.90;;;;;;4965898;29;20112;-84
2022/10/05 04:47:04;;;;;;;4.90;3.60;;;11.00;99.90;;;;;;4966694;28;20038;-83
2022/10/05 04:50:06;;;;;;;5.00;3.55;;;11.00;99.90;;;;;;4951932;28;20047;-83
2022/10/05 04:52:36;;;;;;;5.28;3.20;;;11.10;99.90;;;;;;4960310;28;20057;-84
2022/10/05 04:55:02;;;;;;;8.05;3.70;;;11.10;99.90;;;;;;4951127;28;20047;-84
2022/10/05 04:57:50;;;;;;;5.97;4.90;;;11.10;99.90;;;;;;4953435;28;20054;-85
2022/10/05 05:00:47;;;;;;;8.18;5.43;;;11.10;99.90;;;;;;4951677;28;20420;-84
2022/10/05 05:03:33;;;;;;;5.05;3.83;;;11.10;99.90;;;;;;4959945;28;20500;-85
2022/10/05 05:06:03;;;;;;;5.85;3.92;;;11.10;99.90;;;;;;4946441;28;20044;-84
2022/10/05 05:09:08;;;;;;;5.88;4.18;;;11.10;99.90;;;;;;4957876;28;20047;-84
2022/10/05 05:12:06;;;;;;;6.85;4.63;;;11.10;99.90;;;;;;4953131;28;20055;-85
2022/10/05 05:14:50;;;;;;;7.25;4.10;;;11.20;99.90;;;;;;4954024;28;20044;-85
2022/10/05 05:17:44;;;;;;;8.27;4.53;;;11.20;99.90;;;;;;4949722;28;20051;-84
2022/10/05 05:20:30;;;;;;;7.00;5.15;;;11.20;99.90;;;;;;4957104;28;20142;-81
2022/10/05 05:23:11;;;;;;;10.30;6.28;;;11.20;99.90;;;;;;4951231;28;20039;-85
2022/10/05 05:25:45;;;;;;;5.90;4.15;;;11.20;99.90;;;;;;4956907;28;20050;-83
2022/10/05 05:28:34;;;;;;;6.90;4.20;;;11.20;99.90;;;;;;4948833;28;20134;-84
2022/10/05 05:31:36;;;;;;;4.93;3.92;;;11.20;99.90;;;;;;4955262;28;20134;-85
2022/10/05 05:34:21;;;;;;;6.07;3.92;;;11.20;99.90;;;;;;4950230;28;20059;-84
2022/10/05 05:37:13;;;;;;;7.38;3.63;;;11.20;99.90;;;;;;4956095;28;20057;-84
2022/10/05 05:40:02;;;;;;;8.50;3.50;;;11.20;99.90;;;;;;4956180;28;20050;-83
2022/10/05 05:42:47;;;;;;;7.07;4.68;;;11.20;99.90;;;;;;4951638;29;20047;-83
2022/10/05 05:45:38;;;;;;;5.60;4.10;;;11.20;99.90;;;;;;4951316;29;20051;-85
2022/10/05 05:48:22;;;;;;;9.80;4.25;;;11.20;99.90;;;;;;4945714;29;20052;-82
2022/10/05 05:51:29;;;;;;;4.40;3.70;;;11.20;99.90;;;;;;4950690;29;20061;-84
2022/10/05 05:54:22;;;;;;;4.32;3.30;;;11.20;99.90;;;;;;4943261;29;20091;-82
2022/10/05 05:56:57;;;;;;;10.00;4.50;;;11.20;99.90;;;;;;4944184;29;20079;-83
2022/10/05 05:59:32;;;;;;;5.35;3.78;;;11.20;99.90;;;;;;4951630;29;20107;-84
2022/10/05 06:02:08;;;;;;;5.90;4.28;;;11.20;99.90;;;;;;4957792;28;20075;-83
2022/10/05 06:04:40;;;;;;;3.33;2.90;;;11.20;99.90;;;;;;4967019;28;20119;-85
2022/10/05 06:07:15;;;;;;;6.80;3.78;;;11.20;99.90;;;;;;4958215;29;20675;-84
2022/10/05 06:09:53;;;;;;;11.38;4.13;;;11.20;99.90;;;;;;4949621;29;20413;-84
2022/10/05 06:12:27;;;;;;;5.30;3.05;;;11.20;99.90;;;;;;4961105;29;20130;-84
2022/10/05 06:15:02;;;;;;;6.43;3.30;;;11.20;99.90;;;;;;4952873;29;20062;-85
2022/10/05 06:18:03;;;;;;;4.68;3.60;;;11.30;99.90;;;;;;4948596;29;20062;-85
2022/10/05 06:20:55;;;;;;;4.43;3.60;;;11.30;99.90;;;;;;4929399;29;20086;-84
2022/10/05 06:23:34;;;;;;;7.25;4.10;;;11.30;99.90;;;;;;4949084;29;20079;-85
2022/10/05 06:26:14;;;;;;;8.10;4.65;;;11.40;99.90;;;;;;4952535;29;20581;-84
2022/10/05 06:28:40;;;;;;;6.53;4.07;;;11.40;99.90;;;;;;4946277;29;20065;-84
2022/10/05 06:31:28;;;;;;;5.78;3.80;;;11.40;99.90;;;;;;4952042;29;20047;-84
2022/10/05 06:34:18;;;;;;;6.40;3.88;;;11.40;99.90;;;;;;4953381;29;20052;-85
2022/10/05 06:36:49;;;;;;;6.68;4.35;;;11.50;99.90;;;;;;4947676;28;20134;-85
2022/10/05 06:39:47;;;;;;;5.03;3.45;;;11.50;99.90;;;;;;4945981;29;20429;-84
2022/10/05 06:42:25;;;;;;;7.57;3.72;;;11.50;99.90;;;;;;4951401;29;20126;-84
2022/10/05 06:45:00;;;;;;;5.82;3.38;;;11.60;99.90;;;;;;4945814;29;20091;-85
2022/10/05 06:47:46;;;;;;;5.35;3.22;;;11.60;99.90;;;;;;4955656;29;20075;-85
2022/10/05 06:50:35;;;;;;;3.15;2.60;;;11.70;99.90;;;;;;4944092;29;20061;-84
2022/10/05 06:53:30;;;;;;;3.05;2.63;;;11.70;99.90;;;;;;4953079;29;20055;-85
2022/10/05 06:56:24;;;;;;;2.88;1.85;;;11.80;99.90;;;;;;4950154;29;20110;-84
2022/10/05 06:59:14;;;;;;;2.28;2.00;;;11.90;99.90;;;;;;4955042;29;20057;-82
2022/10/05 07:02:23;;;;;;;2.35;2.10;;;11.90;99.90;;;;;;4952955;29;20057;-82
2022/10/05 07:05:32;;;;;;;6.45;2.40;;;12.00;99.90;;;;;;4944904;29;20053;-85
2022/10/05 07:08:06;;;;;;;6.18;3.20;;;12.10;99.90;;;;;;4950710;29;20050;-84
2022/10/05 07:10:44;;;;;;;6.07;3.33;;;12.20;99.90;;;;;;4954988;29;20048;-85
2022/10/05 07:13:46;;;;;;;3.55;2.03;;;12.30;99.90;;;;;;4950697;29;20505;-84
2022/10/05 07:16:34;;;;;;;3.55;2.30;;;12.40;99.90;;;;;;4945928;29;20058;-83
2022/10/05 07:19:20;;;;;;;3.60;1.65;;;12.50;99.90;;;;;;4953245;29;20106;-82
2022/10/05 07:22:17;;;;;;;6.00;1.77;;;12.60;99.90;;;;;;4943645;29;20054;-84
2022/10/05 07:25:12;;;;;;;2.47;1.52;;;12.80;99.90;;;;;;4956739;29;20047;-84
2022/10/05 07:28:03;;;;;;;2.25;1.65;;;13.00;99.90;;;;;;4953986;29;20054;-84
2022/10/05 07:30:42;;;;;;;2.60;1.40;;;13.10;99.90;;;;;;4944534;29;20047;-84
2022/10/05 07:33:32;;;;;;;4.75;1.73;;;13.30;99.90;;;;;;4943975;29;20054;-81
2022/10/05 07:39:07;;;;;;;2.45;1.40;;;13.40;99.90;;;;;;4952220;29;20071;-84
2022/10/05 07:41:46;;;;;;;3.75;1.52;;;13.60;99.90;;;;;;4959894;29;20058;-85
2022/10/05 07:44:33;;;;;;;3.10;1.40;;;13.70;99.90;;;;;;4947540;29;20118;-84
2022/10/05 07:47:07;;;;;;;2.70;1.58;;;13.90;99.90;;;;;;4946318;29;20062;-84
2022/10/05 07:49:46;;;;;;;4.75;1.55;;;14.00;99.90;;;;;;4949591;29;20130;-86
2022/10/05 07:52:37;;;;;;;4.13;1.42;;;14.10;99.90;;;;;;4954885;29;20055;-85
2022/10/05 07:55:18;;;;;;;2.17;1.10;;;14.10;99.90;;;;;;4947091;29;20063;-84
2022/10/05 07:58:17;;;;;;;3.20;1.60;;;14.20;99.90;;;;;;4951537;29;20111;-81
2022/10/05 08:00:55;;;;;;;2.80;1.50;;;14.30;99.90;;;;;;4951129;29;20079;-84
2022/10/05 08:03:44;;;;;;;2.75;1.70;;;14.30;99.90;;;;;;4941980;29;20044;-85
2022/10/05 08:06:27;;;;;;;2.38;1.63;;;14.40;99.90;;;;;;4954589;29;20047;-84
2022/10/05 08:09:03;;;;;;;2.38;1.50;;;14.50;99.90;;;;;;4946253;29;20051;-84
2022/10/05 08:11:40;;;;;;;1.50;1.13;;;14.60;99.90;;;;;;4957368;29;20111;-84
2022/10/05 08:14:19;;;;;;;3.45;1.60;;;14.60;99.90;;;;;;4944566;29;20135;-84
2022/10/05 08:16:48;;;;;;;3.65;1.67;;;14.70;99.90;;;;;;4955031;29;20055;-85
2022/10/05 08:19:25;;;;;;;2.67;1.30;;;14.80;99.90;;;;;;4954794;29;20110;-84
2022/10/05 08:22:03;;;;;;;3.13;1.70;;;14.90;99.90;;;;;;4952961;29;20057;-85
2022/10/05 08:24:53;;;;;;;1.98;1.13;;;14.90;99.90;;;;;;4957186;28;20050;-85
2022/10/05 08:27:48;;;;;;;6.95;1.30;;;15.00;99.90;;;;;;4962961;29;20056;-84
2022/10/05 08:30:15;;;;;;;2.65;1.30;;;15.10;99.90;;;;;;4955480;28;20130;-85
2022/10/05 08:33:05;;;;;;;3.65;1.00;;;15.10;99.90;;;;;;4953390;29;20062;-85
2022/10/05 08:35:37;;;;;;;1.23;1.13;;;15.20;99.90;;;;;;4945995;29;20061;-84
2022/10/05 08:38:15;;;;;;;4.18;1.25;;;15.20;99.90;;;;;;4944951;29;20051;-84
2022/10/05 08:41:00;;;;;;;4.05;1.30;;;15.40;99.90;;;;;;4949916;29;20087;-83
2022/10/05 08:44:08;;;;;;;6.22;1.23;;;15.40;99.90;;;;;;4953134;29;20449;-83
2022/10/05 08:46:49;;;;;;;4.30;1.00;;;15.50;99.90;;;;;;4962349;29;20093;-85
2022/10/05 08:49:38;;;;;;;1.75;1.05;;;15.60;99.90;;;;;;4961008;29;20051;-85
2022/10/05 08:52:28;;;;;;;2.17;1.00;;;15.60;99.90;;;;;;4953057;29;20086;-85
2022/10/05 08:55:21;;;;;;;1.55;0.90;;;15.70;99.90;;;;;;4963760;29;20058;-81
2022/10/05 08:58:36;;;;;;;2.92;0.88;;;15.80;99.90;;;;;;4962032;29;20062;-85
2022/10/05 09:01:03;;;;;;;4.82;1.17;;;15.90;99.90;;;;;;4948708;29;20055;-85
2022/10/05 09:03:37;;;;;;;3.70;0.90;;;15.90;99.90;;;;;;4953746;29;20047;-82
2022/10/05 09:06:27;;;;;;;2.95;1.30;;;16.00;99.90;;;;;;4943940;29;20094;-85
2022/10/05 09:09:05;;;;;;;1.45;1.13;;;16.10;99.90;;;;;;4947736;29;20169;-85
2022/10/05 09:11:56;;;;;;;2.47;1.30;;;16.10;99.90;;;;;;4950219;29;20051;-84
2022/10/05 09:14:49;;;;;;;1.30;1.00;;;16.20;99.90;;;;;;4957361;29;20532;-83
2022/10/05 09:17:59;;;;;;;3.22;0.70;;;16.20;99.90;;;;;;4956622;29;20048;-85
2022/10/05 09:20:54;;;;;;;0.82;0.63;;;16.30;99.90;;;;;;4947830;29;20055;-84
2022/10/05 09:23:41;;;;;;;1.77;1.00;;;16.30;99.90;;;;;;4952641;29;20134;-84
2022/10/05 09:26:41;;;;;;;3.13;0.80;;;16.30;99.90;;;;;;4948398;29;20118;-85
2022/10/05 09:29:48;;;;;;;2.40;1.08;;;16.40;99.90;;;;;;4951624;29;20066;-85
2022/10/05 09:32:38;;;;;;;1.92;0.90;;;16.40;99.90;;;;;;4950029;29;20581;-85
2022/10/05 09:35:51;;;;;;;1.90;0.80;;;16.50;99.90;;;;;;4952483;28;20051;-85
2022/10/05 09:38:55;;;;;;;2.13;0.90;;;16.50;99.90;;;;;;4945947;29;20070;-85
2022/10/05 09:41:46;;;;;;;5.28;1.75;;;16.60;99.90;;;;;;4955605;29;20057;-85
2022/10/05 09:44:32;;;;;;;0.88;0.63;;;16.70;99.90;;;;;;4951457;29;20565;-85
2022/10/05 09:47:21;;;;;;;1.80;0.90;;;16.70;99.90;;;;;;4960565;29;20139;-85
2022/10/05 09:50:21;;;;;;;0.50;0.50;;;16.80;99.90;;;;;;4963824;28;20101;-85
2022/10/05 09:53:17;;;;;;;0.80;0.40;;;16.80;99.90;;;;;;4952948;29;20111;-85
2022/10/05 09:56:04;;;;;;;4.55;0.70;;;16.90;99.90;;;;;;4947269;29;20524;-85
2022/10/05 09:58:48;;;;;;;1.08;0.38;;;17.00;99.90;;;;;;4950327;29;20056;-86
2022/10/05 10:01:15;;;;;;;1.40;0.70;;;17.00;99.90;;;;;;4959385;29;20051;-86
2022/10/05 10:04:06;;;;;;;2.55;0.80;;;17.10;99.90;;;;;;4954286;29;20047;-85
2022/10/05 10:07:04;;;;;;;3.53;0.50;;;17.00;99.90;;;;;;4952318;28;20543;-86
2022/10/05 10:09:59;;;;;;;1.08;0.50;;;17.10;99.90;;;;;;4949756;29;20082;-85
2022/10/05 10:13:07;;;;;;;2.63;0.70;;;17.20;99.90;;;;;;4945433;29;20114;-85
2022/10/05 10:15:56;;;;;;;0.60;0.50;;;17.20;99.90;;;;;;4940812;29;20051;-85
2022/10/05 10:18:52;;;;;;;0.97;0.80;;;17.30;99.90;;;;;;4951834;29;20420;-85
2022/10/05 10:21:56;;;;;;;2.42;0.50;;;17.30;99.90;;;;;;4961417;29;20425;-85
2022/10/05 10:24:46;;;;;;;1.65;0.50;;;17.50;99.90;;;;;;4956017;28;20132;-86
2022/10/05 10:27:37;;;;;;;0.83;0.70;;;17.60;99.90;;;;;;4951593;29;20482;-86
2022/10/05 10:30:28;;;;;;;0.63;0.60;;;17.70;99.90;;;;;;4957089;29;20075;-85
2022/10/05 10:33:14;;;;;;;2.78;0.65;;;17.70;99.90;;;;;;4959156;29;20050;-86
2022/10/05 10:35:54;;;;;;;2.70;0.60;;;17.80;99.90;;;;;;4956648;29;20568;-85
2022/10/05 10:38:39;;;;;;;;;;;17.80;99.90;;;;;;4957423;29;20052;-85
2022/10/05 10:41:30;;;;;;;1.13;0.50;;;17.90;99.90;;;;;;4947335;29;19926;-86
2022/10/05 10:44:36;;;;;;;1.45;0.50;;;18.00;99.90;;;;;;4944631;29;20047;-85
2022/10/05 10:47:09;;;;;;;2.35;0.60;;;18.00;99.90;;;;;;4945721;29;20083;-85
2022/10/05 10:49:55;;;;;;;1.02;0.60;;;18.10;99.90;;;;;;4955310;29;20047;-85
2022/10/05 10:52:39;;;;;;;1.08;0.50;;;18.20;99.90;;;;;;4949472;29;20146;-84
2022/10/05 10:55:34;;;;;;;1.10;0.60;;;18.20;99.90;;;;;;4953308;29;20137;-85
2022/10/05 10:58:29;;;;;;;0.95;0.73;;;18.20;99.90;;;;;;4950596;29;20083;-86
2022/10/05 11:01:04;;;;;;;;;;;18.20;99.90;;;;;;4964401;28;20227;-86
2022/10/05 11:03:44;;;;;;;0.50;0.50;;;18.20;99.90;;;;;;4944830;29;19922;-85
2022/10/05 11:06:54;;;;;;;1.60;0.68;;;18.20;99.90;;;;;;4954121;29;20130;-85
2022/10/05 11:09:28;;;;;;;;;;;18.40;99.90;;;;;;4949036;29;20051;-85
2022/10/05 11:12:26;;;;;;;2.40;0.77;;;18.40;99.90;;;;;;4949141;29;19930;-86
2022/10/05 11:15:27;;;;;;;1.23;0.68;;;18.40;99.90;;;;;;4958826;29;20138;-85
2022/10/05 11:18:09;;;;;;;1.48;0.88;;;18.40;99.90;;;;;;4948898;29;20056;-85
2022/10/05 11:21:03;;;;;;;2.03;0.90;;;18.40;99.90;;;;;;4949626;29;20154;-86
2022/10/05 11:23:41;;;;;;;4.70;0.88;;;18.40;99.90;;;;;;4951811;29;20047;-87
2022/10/05 11:26:46;;;;;;;2.10;0.90;;;18.50;99.90;;;;;;4957837;29;20085;-85
2022/10/05 11:29:52;;;;;;;3.42;1.00;;;18.50;99.90;;;;;;4919018;29;20051;-85
2022/10/05 11:32:26;;;;;;;1.17;0.80;;;18.50;99.90;;;;;;4949066;29;20051;-85
2022/10/05 11:35:30;;;;;;;2.28;0.90;;;18.60;99.90;;;;;;4946617;29;20057;-86
2022/10/05 11:38:06;;;;;;;1.10;0.70;;;18.60;99.90;;;;;;4950502;29;20055;-86
2022/10/05 11:40:55;;;;;;;2.15;0.80;;;18.60;99.90;;;;;;4953283;29;20390;-85
2022/10/05 11:43:40;;;;;;;1.25;0.80;;;18.60;99.90;;;;;;4958773;29;20058;-85
2022/10/05 11:46:31;;;;;;;2.83;1.35;;;18.70;99.90;;;;;;4952997;29;20089;-85
2022/10/05 11:49:14;;;;;;;1.42;0.80;;;18.80;99.90;;;;;;4941148;29;20058;-85
2022/10/05 11:51:51;;;;;;;3.95;0.80;;;18.80;99.90;;;;;;4940826;29;20107;-85
2022/10/05 11:55:02;;;;;;;2.95;1.00;;;18.80;99.90;;;;;;4944749;29;20159;-87
2022/10/05 11:57:52;;;;;;;2.13;0.90;;;18.80;99.90;;;;;;4925426;29;20070;-84
2022/10/05 12:00:21;;;;;;;3.22;0.95;;;18.90;99.90;;;;;;4951812;29;20135;-85
2022/10/05 12:02:51;;;;;;;4.32;0.70;;;18.90;99.90;;;;;;4953671;29;20044;-85
2022/10/05 12:05:24;;;;;;;3.63;1.10;;;18.90;99.90;;;;;;4947550;29;20086;-85
2022/10/05 12:08:05;;;;;;;3.55;1.25;;;18.90;99.90;;;;;;4956033;29;20054;-85
2022/10/05 12:10:55;;;;;;;;;;;18.90;99.90;;;;;;4950992;29;20048;-85
2022/10/05 12:13:53;;;;;;;1.95;1.00;;;18.90;99.90;;;;;;4958357;29;19978;-85
2022/10/05 12:16:27;;;;;;;1.65;1.08;;;19.00;99.90;;;;;;4957793;29;20055;-85
2022/10/05 12:19:10;;;;;;;2.33;1.08;;;19.10;99.90;;;;;;4955816;29;20061;-85
2022/10/05 12:21:50;;;;;;;3.30;1.20;;;19.10;99.90;;;;;;4955160;29;20051;-85
2022/10/05 12:24:37;;;;;;;1.45;1.00;;;19.20;99.90;;;;;;4950956;29;20430;-85
2022/10/05 12:27:17;;;;;;;1.38;1.00;;;19.10;99.90;;;;;;4954098;29;20480;-85
2022/10/05 12:30:12;;;;;;;1.42;0.68;;;19.10;99.90;;;;;;4958592;29;20043;-85
2022/10/05 12:32:54;;;;;;;5.30;1.00;;;19.10;99.90;;;;;;4958010;29;20428;-85
2022/10/05 12:36:04;;;;;;;4.82;1.00;;;19.10;99.90;;;;;;4950473;29;20092;-85
2022/10/05 12:38:44;;;;;;;1.52;1.00;;;19.10;99.90;;;;;;4952221;29;20082;-85
2022/10/05 12:41:21;;;;;;;;;;;19.20;99.90;;;;;;4948937;29;20059;-85
2022/10/05 12:44:03;;;;;;;3.03;0.90;;;19.20;99.90;;;;;;4955629;29;19929;-87
2022/10/05 12:46:47;;;;;;;4.22;0.98;;;19.20;99.90;;;;;;4959312;29;20061;-86
2022/10/05 12:49:36;;;;;;;2.50;0.95;;;19.30;99.90;;;;;;4953511;29;20051;-85
2022/10/05 12:52:05;;;;;;;2.83;1.20;;;19.30;99.90;;;;;;4953368;29;20062;-85
2022/10/05 12:54:57;;;;;;;3.13;1.23;;;19.30;99.90;;;;;;4956832;28;20601;-85
2022/10/05 12:57:54;;;;;;;2.92;0.85;;;19.40;99.90;;;;;;4950528;29;20059;-85
2022/10/05 13:00:21;;;;;;;2.08;0.70;;;19.40;99.90;;;;;;4954172;29;20051;-85
2022/10/05 13:02:56;;;;;;;3.72;1.00;;;19.50;99.90;;;;;;4955755;29;20051;-86
2022/10/05 13:05:29;;;;;;;2.38;0.80;;;19.60;99.90;;;;;;4949863;29;20103;-85
2022/10/05 13:08:11;;;;;;;1.35;0.80;;;19.60;99.90;;;;;;4946629;29;20486;-85
2022/10/05 13:10:53;;;;;;;4.53;1.00;;;19.70;99.90;;;;;;4957333;28;20075;-85
2022/10/05 13:13:42;;;;;;;5.10;1.08;;;19.70;99.90;;;;;;4957055;29;20059;-85
2022/10/05 13:16:18;;;;;;;1.20;1.10;;;19.70;99.90;;;;;;4949548;29;20057;-85
2022/10/05 13:19:10;;;;;;;2.88;1.27;;;19.70;99.90;;;;;;4950186;29;20103;-85
2022/10/05 13:21:48;;;;;;;3.28;1.20;;;19.80;99.90;;;;;;4955151;29;20055;-85
2022/10/05 13:24:28;;;;;;;5.82;1.05;;;19.80;99.90;;;;;;4953994;29;20050;-85
2022/10/05 13:27:21;;;;;;;4.85;1.08;;;19.80;99.90;;;;;;4946001;29;20054;-85
2022/10/05 13:29:58;;;;;;;3.28;0.80;;;19.90;99.90;;;;;;4954828;29;20051;-85
2022/10/05 13:32:28;;;;;;;1.77;1.15;;;19.90;99.90;;;;;;4959163;29;20048;-85
2022/10/05 13:35:29;;;;;;;2.42;0.80;;;19.90;99.90;;;;;;4952205;29;20048;-86
2022/10/05 13:38:05;;;;;;;3.80;0.80;;;19.90;99.90;;;;;;4948690;29;20497;-85
2022/10/05 13:41:04;;;;;;;2.60;0.88;;;20.00;99.90;;;;;;4954011;29;20462;-85
2022/10/05 13:43:56;;;;;;;0.93;0.60;;;20.00;99.90;;;;;;4955756;28;20057;-85
2022/10/05 13:46:37;;;;;;;7.05;0.90;;;20.00;99.90;;;;;;4948030;29;20054;-84
2022/10/05 13:49:19;;;;;;;1.70;0.77;;;20.10;99.90;;;;;;4950001;29;20046;-85
2022/10/05 13:52:16;;;;;;;2.20;0.80;;;20.10;99.90;;;;;;4948240;29;20513;-85
2022/10/05 13:55:14;;;;;;;2.22;1.00;;;20.10;99.90;;;;;;4949782;29;20048;-85
2022/10/05 13:58:07;;;;;;;3.90;0.85;;;20.10;99.90;;;;;;4948433;29;20536;-85
2022/10/05 14:00:51;;;;;;;3.92;0.90;;;20.10;99.90;;;;;;4943409;29;20056;-85
2022/10/05 14:03:34;;;;;;;3.03;0.73;;;20.10;99.90;;;;;;4953111;29;20051;-86
2022/10/05 14:06:10;;;;;;;2.20;0.93;;;20.20;99.90;;;;;;4950933;29;20043;-85
2022/10/05 14:09:25;;;;;;;5.53;0.93;;;20.20;99.90;;;;;;4958879;29;20051;-85
2022/10/05 14:12:04;;;;;;;2.85;0.60;;;20.20;99.90;;;;;;4956246;29;20069;-85
2022/10/05 14:14:40;;;;;;;2.15;0.77;;;20.20;99.90;;;;;;4954410;29;20146;-86
2022/10/05 14:17:35;;;;;;;2.28;0.80;;;20.20;99.90;;;;;;4945082;29;20529;-86
2022/10/05 14:20:18;;;;;;;4.82;1.00;;;20.20;99.90;;;;;;4949764;29;20052;-83
2022/10/05 14:23:06;;;;;;;1.85;0.80;;;20.30;99.90;;;;;;4950818;28;20126;-83
2022/10/05 14:25:52;;;;;;;2.63;0.80;;;20.40;99.90;;;;;;4950113;29;20419;-85